sensor_id;sensor_type;location;lat;lon;timestamp;temperature;humidity
7248;DHT22;3665;51.034;13.642;2023-10-19T00:03:54;7.50;1.00
7248;DHT22;3665;51.034;13.642;2023-10-19T00:08:53;7.50;1.00
7248;DHT22;3665;51.034;13.642;2023-10-19T00:13:44;7.50;1.00
7248;DHT22;3665;51.034;13.642;2023-10-19T00:18:35;7.50;1.00
7248;DHT22;3665;51.034;13.642;2023-10-19T00:23:24;7.50;1.00
7248;DHT22;3665;51.034;13.642;2023-10-19T00:28:26;7.50;1.00
7248;DHT22;3665;51.034;13.642;2023-10-19T00:33:15;7.50;1.00
7248;DHT22;3665;51.034;13.642;2023-10-19T00:38:02;7.70;1.00
7248;DHT22;3665;51.034;13.642;2023-10-19T00:43:26;7.60;1.00
7248;DHT22;3665;51.034;13.642;2023-10-19T00:48:11;7.70;1.00
7248;DHT22;3665;51.034;13.642;2023-10-19T00:52:57;7.60;1.00
7248;DHT22;3665;51.034;13.642;2023-10-19T00:57:48;7.70;1.00
7248;DHT22;3665;51.034;13.642;2023-10-19T01:02:36;7.70;1.00
7248;DHT22;3665;51.034;13.642;2023-10-19T01:07:28;7.70;1.00
7248;DHT22;3665;51.034;13.642;2023-10-19T01:12:13;7.80;1.00
7248;DHT22;3665;51.034;13.642;2023-10-19T01:17:16;7.70;1.00
7248;DHT22;3665;51.034;13.642;2023-10-19T01:22:00;7.80;1.00
7248;DHT22;3665;51.034;13.642;2023-10-19T01:26:49;7.80;1.00
7248;DHT22;3665;51.034;13.642;2023-10-19T01:31:38;7.80;1.00
7248;DHT22;3665;51.034;13.642;2023-10-19T01:36:41;7.80;1.00
7248;DHT22;3665;51.034;13.642;2023-10-19T01:41:32;7.90;1.00
7248;DHT22;3665;51.034;13.642;2023-10-19T01:46:18;7.90;1.00
7248;DHT22;3665;51.034;13.642;2023-10-19T01:51:25;7.90;1.00
7248;DHT22;3665;51.034;13.642;2023-10-19T01:56:10;8.00;1.00
7248;DHT22;3665;51.034;13.642;2023-10-19T02:00:57;8.10;1.00
7248;DHT22;3665;51.034;13.642;2023-10-19T02:05:47;8.10;1.00
7248;DHT22;3665;51.034;13.642;2023-10-19T02:10:35;8.10;1.00
7248;DHT22;3665;51.034;13.642;2023-10-19T02:15:23;8.10;1.00
7248;DHT22;3665;51.034;13.642;2023-10-19T02:20:10;8.00;1.00
7248;DHT22;3665;51.034;13.642;2023-10-19T02:25:16;8.10;1.00
7248;DHT22;3665;51.034;13.642;2023-10-19T02:30:02;8.10;1.00
7248;DHT22;3665;51.034;13.642;2023-10-19T02:34:49;8.00;1.00
7248;DHT22;3665;51.034;13.642;2023-10-19T02:39:33;8.00;1.00
7248;DHT22;3665;51.034;13.642;2023-10-19T02:44:26;8.00;1.00
7248;DHT22;3665;51.034;13.642;2023-10-19T02:49:14;8.00;1.00
7248;DHT22;3665;51.034;13.642;2023-10-19T02:54:02;8.10;1.00
7248;DHT22;3665;51.034;13.642;2023-10-19T02:58:48;8.10;1.00
7248;DHT22;3665;51.034;13.642;2023-10-19T03:03:46;8.10;1.00
7248;DHT22;3665;51.034;13.642;2023-10-19T03:08:44;8.20;1.00
7248;DHT22;3665;51.034;13.642;2023-10-19T03:13:30;8.10;1.00
7248;DHT22;3665;51.034;13.642;2023-10-19T03:18:18;8.00;1.00
7248;DHT22;3665;51.034;13.642;2023-10-19T03:23:06;8.00;1.00
7248;DHT22;3665;51.034;13.642;2023-10-19T03:27:55;7.80;1.00
7248;DHT22;3665;51.034;13.642;2023-10-19T03:32:41;7.70;1.00
7248;DHT22;3665;51.034;13.642;2023-10-19T03:37:30;7.60;1.00
7248;DHT22;3665;51.034;13.642;2023-10-19T03:42:19;7.50;1.00
7248;DHT22;3665;51.034;13.642;2023-10-19T03:47:06;7.50;1.00
7248;DHT22;3665;51.034;13.642;2023-10-19T03:51:54;7.50;1.00
7248;DHT22;3665;51.034;13.642;2023-10-19T03:56:45;7.30;1.00
7248;DHT22;3665;51.034;13.642;2023-10-19T04:01:31;7.30;1.00
7248;DHT22;3665;51.034;13.642;2023-10-19T04:06:18;7.20;1.00
7248;DHT22;3665;51.034;13.642;2023-10-19T04:11:09;7.40;1.00
7248;DHT22;3665;51.034;13.642;2023-10-19T04:16:09;7.30;1.00
7248;DHT22;3665;51.034;13.642;2023-10-19T04:21:02;7.20;1.00
7248;DHT22;3665;51.034;13.642;2023-10-19T04:37:03;7.00;99.90
7248;DHT22;3665;51.034;13.642;2023-10-19T04:41:47;6.90;1.00
7248;DHT22;3665;51.034;13.642;2023-10-19T04:46:35;6.80;1.00
7248;DHT22;3665;51.034;13.642;2023-10-19T04:51:21;6.80;1.00
7248;DHT22;3665;51.034;13.642;2023-10-19T04:56:25;6.70;99.90
7248;DHT22;3665;51.034;13.642;2023-10-19T05:01:15;6.70;99.90
7248;DHT22;3665;51.034;13.642;2023-10-19T05:06:04;6.70;1.00
7248;DHT22;3665;51.034;13.642;2023-10-19T05:10:51;6.70;99.90
7248;DHT22;3665;51.034;13.642;2023-10-19T05:26:54;6.70;59.20
7248;DHT22;3665;51.034;13.642;2023-10-19T05:31:40;6.60;99.90
7248;DHT22;3665;51.034;13.642;2023-10-19T05:36:26;6.60;1.00
7248;DHT22;3665;51.034;13.642;2023-10-19T05:41:13;6.40;1.00
7248;DHT22;3665;51.034;13.642;2023-10-19T05:46:02;6.60;89.70
7248;DHT22;3665;51.034;13.642;2023-10-19T05:50:51;6.60;1.00
7248;DHT22;3665;51.034;13.642;2023-10-19T05:55:41;6.50;75.70
7248;DHT22;3665;51.034;13.642;2023-10-19T06:00:25;6.70;1.00
7248;DHT22;3665;51.034;13.642;2023-10-19T06:05:18;6.60;99.90
7248;DHT22;3665;51.034;13.642;2023-10-19T06:10:02;6.60;99.90
7248;DHT22;3665;51.034;13.642;2023-10-19T06:14:50;6.60;99.90
7248;DHT22;3665;51.034;13.642;2023-10-19T06:19:37;6.50;1.00
7248;DHT22;3665;51.034;13.642;2023-10-19T06:29:49;6.50;99.90
7248;DHT22;3665;51.034;13.642;2023-10-19T06:34:35;6.60;99.90
7248;DHT22;3665;51.034;13.642;2023-10-19T06:39:23;6.60;99.90
7248;DHT22;3665;51.034;13.642;2023-10-19T06:44:10;6.60;99.90
7248;DHT22;3665;51.034;13.642;2023-10-19T06:49:02;6.70;99.90
7248;DHT22;3665;51.034;13.642;2023-10-19T06:54:02;6.60;99.90
7248;DHT22;3665;51.034;13.642;2023-10-19T06:58:49;6.70;99.90
7248;DHT22;3665;51.034;13.642;2023-10-19T07:03:42;6.90;99.90
7248;DHT22;3665;51.034;13.642;2023-10-19T07:08:57;6.80;99.90
7248;DHT22;3665;51.034;13.642;2023-10-19T07:13:44;6.90;99.90
7248;DHT22;3665;51.034;13.642;2023-10-19T07:18:34;6.80;99.90
7248;DHT22;3665;51.034;13.642;2023-10-19T07:23:22;7.00;99.90
7248;DHT22;3665;51.034;13.642;2023-10-19T07:28:25;7.00;99.90
7248;DHT22;3665;51.034;13.642;2023-10-19T07:33:16;7.00;99.90
7248;DHT22;3665;51.034;13.642;2023-10-19T07:38:01;6.90;99.90
7248;DHT22;3665;51.034;13.642;2023-10-19T07:42:50;6.90;99.90
7248;DHT22;3665;51.034;13.642;2023-10-19T07:47:37;6.90;99.90
7248;DHT22;3665;51.034;13.642;2023-10-19T07:52:28;6.90;99.90
7248;DHT22;3665;51.034;13.642;2023-10-19T07:57:14;6.90;93.70
7248;DHT22;3665;51.034;13.642;2023-10-19T08:02:23;7.10;99.90
7248;DHT22;3665;51.034;13.642;2023-10-19T08:07:41;7.00;99.90
7248;DHT22;3665;51.034;13.642;2023-10-19T08:12:25;7.10;99.90
7248;DHT22;3665;51.034;13.642;2023-10-19T08:22:38;7.20;99.90
7248;DHT22;3665;51.034;13.642;2023-10-19T08:27:27;7.30;80.20
7248;DHT22;3665;51.034;13.642;2023-10-19T08:32:11;7.30;1.00
7248;DHT22;3665;51.034;13.642;2023-10-19T08:37:00;7.30;1.00
7248;DHT22;3665;51.034;13.642;2023-10-19T08:47:09;7.40;99.90
7248;DHT22;3665;51.034;13.642;2023-10-19T08:51:54;7.50;1.00
7248;DHT22;3665;51.034;13.642;2023-10-19T08:56:42;7.50;1.00
7248;DHT22;3665;51.034;13.642;2023-10-19T09:01:29;7.60;75.30
7248;DHT22;3665;51.034;13.642;2023-10-19T09:06:37;7.70;99.90
7248;DHT22;3665;51.034;13.642;2023-10-19T09:11:40;7.90;1.00
7248;DHT22;3665;51.034;13.642;2023-10-19T09:16:26;8.20;1.00
7248;DHT22;3665;51.034;13.642;2023-10-19T09:21:17;8.40;99.90
7248;DHT22;3665;51.034;13.642;2023-10-19T09:26:21;8.40;1.00
7248;DHT22;3665;51.034;13.642;2023-10-19T09:31:06;8.70;1.00
7248;DHT22;3665;51.034;13.642;2023-10-19T09:35:55;8.90;1.00
7248;DHT22;3665;51.034;13.642;2023-10-19T10:52:58;9.90;1.00
7248;DHT22;3665;51.034;13.642;2023-10-19T11:56:48;11.80;1.00
7248;DHT22;3665;51.034;13.642;2023-10-19T12:29:16;11.10;1.00
7248;DHT22;3665;51.034;13.642;2023-10-19T12:37:17;11.20;1.00
7248;DHT22;3665;51.034;13.642;2023-10-19T12:41:16;11.20;1.00
7248;DHT22;3665;51.034;13.642;2023-10-19T12:53:50;11.10;1.00
7248;DHT22;3665;51.034;13.642;2023-10-19T12:58:37;10.90;1.00
7248;DHT22;3665;51.034;13.642;2023-10-19T13:14:52;10.90;1.00
7248;DHT22;3665;51.034;13.642;2023-10-19T13:19:55;11.60;1.00
7248;DHT22;3665;51.034;13.642;2023-10-19T13:24:44;11.70;1.00
7248;DHT22;3665;51.034;13.642;2023-10-19T13:29:32;11.90;1.00
7248;DHT22;3665;51.034;13.642;2023-10-19T13:34:37;11.80;1.00
7248;DHT22;3665;51.034;13.642;2023-10-19T13:39:23;11.80;1.00
7248;DHT22;3665;51.034;13.642;2023-10-19T13:44:10;11.90;1.00
7248;DHT22;3665;51.034;13.642;2023-10-19T13:48:58;12.10;1.00
7248;DHT22;3665;51.034;13.642;2023-10-19T13:54:05;12.10;1.00
7248;DHT22;3665;51.034;13.642;2023-10-19T13:58:51;12.30;1.00
7248;DHT22;3665;51.034;13.642;2023-10-19T14:03:37;12.10;1.00
7248;DHT22;3665;51.034;13.642;2023-10-19T14:08:27;11.90;1.00
7248;DHT22;3665;51.034;13.642;2023-10-19T14:13:16;11.80;1.00
7248;DHT22;3665;51.034;13.642;2023-10-19T14:18:04;11.70;1.00
7248;DHT22;3665;51.034;13.642;2023-10-19T14:22:52;11.60;1.00
7248;DHT22;3665;51.034;13.642;2023-10-19T14:27:39;11.60;1.00
7248;DHT22;3665;51.034;13.642;2023-10-19T14:32:29;11.60;1.00
7248;DHT22;3665;51.034;13.642;2023-10-19T14:37:13;11.60;1.00
7248;DHT22;3665;51.034;13.642;2023-10-19T14:42:07;11.50;1.00
7248;DHT22;3665;51.034;13.642;2023-10-19T14:46:51;11.40;1.00
7248;DHT22;3665;51.034;13.642;2023-10-19T14:51:40;11.30;1.00
7248;DHT22;3665;51.034;13.642;2023-10-19T14:56:27;11.20;1.00
7248;DHT22;3665;51.034;13.642;2023-10-19T15:01:21;11.10;1.00
7248;DHT22;3665;51.034;13.642;2023-10-19T15:06:11;11.00;1.00
7248;DHT22;3665;51.034;13.642;2023-10-19T15:16:28;10.60;1.00
7248;DHT22;3665;51.034;13.642;2023-10-19T15:21:15;10.50;1.00
7248;DHT22;3665;51.034;13.642;2023-10-19T15:26:02;10.40;1.00
7248;DHT22;3665;51.034;13.642;2023-10-19T15:30:52;10.20;1.00
7248;DHT22;3665;51.034;13.642;2023-10-19T15:35:37;10.20;1.00
7248;DHT22;3665;51.034;13.642;2023-10-19T15:40:26;10.10;1.00
7248;DHT22;3665;51.034;13.642;2023-10-19T15:45:17;9.90;1.00
7248;DHT22;3665;51.034;13.642;2023-10-19T15:50:02;9.80;1.00
7248;DHT22;3665;51.034;13.642;2023-10-19T15:54:51;9.60;1.00
7248;DHT22;3665;51.034;13.642;2023-10-19T15:59:37;9.30;99.90
7248;DHT22;3665;51.034;13.642;2023-10-19T16:04:25;9.30;99.90
7248;DHT22;3665;51.034;13.642;2023-10-19T16:09:18;9.20;99.90
7248;DHT22;3665;51.034;13.642;2023-10-19T16:14:04;9.20;99.90
7248;DHT22;3665;51.034;13.642;2023-10-19T16:18:51;9.10;1.00
7248;DHT22;3665;51.034;13.642;2023-10-19T16:23:37;9.00;65.10
7248;DHT22;3665;51.034;13.642;2023-10-19T16:28:27;9.00;99.90
7248;DHT22;3665;51.034;13.642;2023-10-19T16:33:30;8.90;1.00
7248;DHT22;3665;51.034;13.642;2023-10-19T16:38:17;8.90;99.90
7248;DHT22;3665;51.034;13.642;2023-10-19T16:43:07;8.90;1.00
7248;DHT22;3665;51.034;13.642;2023-10-19T16:47:53;9.00;1.00
7248;DHT22;3665;51.034;13.642;2023-10-19T16:52:47;9.00;1.00
7248;DHT22;3665;51.034;13.642;2023-10-19T16:57:33;9.00;1.00
7248;DHT22;3665;51.034;13.642;2023-10-19T17:02:20;8.90;99.90
7248;DHT22;3665;51.034;13.642;2023-10-19T17:07:07;8.90;1.00
7248;DHT22;3665;51.034;13.642;2023-10-19T17:11:57;8.90;1.00
7248;DHT22;3665;51.034;13.642;2023-10-19T17:16:42;8.80;45.10
7248;DHT22;3665;51.034;13.642;2023-10-19T17:26:51;9.00;1.00
7248;DHT22;3665;51.034;13.642;2023-10-19T17:31:37;9.00;1.00
7248;DHT22;3665;51.034;13.642;2023-10-19T17:36:25;9.00;99.90
7248;DHT22;3665;51.034;13.642;2023-10-19T17:41:36;9.10;1.00
7248;DHT22;3665;51.034;13.642;2023-10-19T17:46:20;9.20;1.00
7248;DHT22;3665;51.034;13.642;2023-10-19T17:51:13;9.20;1.00
7248;DHT22;3665;51.034;13.642;2023-10-19T17:56:02;9.30;99.90
7248;DHT22;3665;51.034;13.642;2023-10-19T18:01:02;9.30;1.00
7248;DHT22;3665;51.034;13.642;2023-10-19T18:05:48;9.30;1.00
7248;DHT22;3665;51.034;13.642;2023-10-19T18:11:09;9.30;1.00
7248;DHT22;3665;51.034;13.642;2023-10-19T18:15:54;9.30;1.00
7248;DHT22;3665;51.034;13.642;2023-10-19T18:21:00;9.40;1.00
7248;DHT22;3665;51.034;13.642;2023-10-19T18:25:47;9.40;99.90
7248;DHT22;3665;51.034;13.642;2023-10-19T18:30:34;9.30;1.00
7248;DHT22;3665;51.034;13.642;2023-10-19T18:35:25;9.30;1.00
7248;DHT22;3665;51.034;13.642;2023-10-19T18:40:11;9.20;99.90
7248;DHT22;3665;51.034;13.642;2023-10-19T18:44:59;9.10;1.00
7248;DHT22;3665;51.034;13.642;2023-10-19T18:49:54;9.10;1.00
7248;DHT22;3665;51.034;13.642;2023-10-19T18:55:23;9.10;1.00
7248;DHT22;3665;51.034;13.642;2023-10-19T19:00:12;9.10;1.00
7248;DHT22;3665;51.034;13.642;2023-10-19T19:04:58;9.00;1.00
7248;DHT22;3665;51.034;13.642;2023-10-19T19:09:46;9.00;1.00
7248;DHT22;3665;51.034;13.642;2023-10-19T19:14:42;9.00;1.00
7248;DHT22;3665;51.034;13.642;2023-10-19T19:30:19;9.00;99.90
7248;DHT22;3665;51.034;13.642;2023-10-19T19:40:27;9.00;1.00
7248;DHT22;3665;51.034;13.642;2023-10-19T19:45:20;9.00;99.90
7248;DHT22;3665;51.034;13.642;2023-10-19T19:50:39;9.00;1.00
7248;DHT22;3665;51.034;13.642;2023-10-19T19:55:42;9.10;99.90
7248;DHT22;3665;51.034;13.642;2023-10-19T21:45:05;9.20;99.90
7248;DHT22;3665;51.034;13.642;2023-10-19T21:50:08;9.10;99.90
7248;DHT22;3665;51.034;13.642;2023-10-19T21:55:10;9.10;99.90
7248;DHT22;3665;51.034;13.642;2023-10-19T22:17:22;9.30;99.90
7248;DHT22;3665;51.034;13.642;2023-10-19T22:27:41;9.20;99.90
7248;DHT22;3665;51.034;13.642;2023-10-19T22:38:51;9.20;99.90
7248;DHT22;3665;51.034;13.642;2023-10-19T22:43:39;9.30;99.90
7248;DHT22;3665;51.034;13.642;2023-10-19T22:48:29;9.20;99.90
7248;DHT22;3665;51.034;13.642;2023-10-19T22:53:16;9.20;99.90
7248;DHT22;3665;51.034;13.642;2023-10-19T23:03:37;9.20;99.90
7248;DHT22;3665;51.034;13.642;2023-10-19T23:08:27;9.20;99.90
7248;DHT22;3665;51.034;13.642;2023-10-19T23:13:14;9.20;99.90
7248;DHT22;3665;51.034;13.642;2023-10-19T23:18:03;9.30;99.90
7248;DHT22;3665;51.034;13.642;2023-10-19T23:23:14;9.30;99.90
7248;DHT22;3665;51.034;13.642;2023-10-19T23:28:02;9.30;99.90
7248;DHT22;3665;51.034;13.642;2023-10-19T23:32:58;9.30;99.90
7248;DHT22;3665;51.034;13.642;2023-10-19T23:38:07;9.40;99.90
7248;DHT22;3665;51.034;13.642;2023-10-19T23:42:51;9.40;99.90
7248;DHT22;3665;51.034;13.642;2023-10-19T23:47:37;9.30;99.90
7248;DHT22;3665;51.034;13.642;2023-10-19T23:52:25;9.30;99.90
7248;DHT22;3665;51.034;13.642;2023-10-19T23:57:18;9.30;99.90
